createdAt,value
2018-10-02T00:00:51.296Z,2.30
2018-10-02T00:03:20.227Z,2.40
2018-10-02T00:05:50.033Z,2.23
2018-10-02T00:08:18.646Z,2.23
2018-10-02T00:10:52.852Z,2.47
2018-10-02T00:13:28.647Z,2.00
2018-10-02T00:15:58.917Z,2.43
2018-10-02T00:18:30.149Z,2.40
2018-10-02T00:21:03.774Z,2.10
2018-10-02T00:23:33.771Z,2.03
2018-10-02T00:26:04.371Z,2.47
2018-10-02T00:28:33.947Z,2.17
2018-10-02T00:31:04.276Z,6.67
2018-10-02T00:33:32.788Z,2.50
2018-10-02T00:36:02.482Z,2.30
2018-10-02T00:38:31.709Z,2.17
2018-10-02T00:41:01.680Z,2.30
2018-10-02T00:43:32.555Z,2.47
2018-10-02T00:46:01.500Z,2.60
2018-10-02T00:48:31.069Z,2.50
2018-10-02T00:51:00.561Z,2.23
2018-10-02T00:53:29.125Z,2.60
2018-10-02T00:55:58.648Z,2.90
2018-10-02T00:58:27.918Z,2.40
2018-10-02T01:00:56.403Z,2.20
2018-10-02T01:03:25.943Z,2.60
2018-10-02T01:05:54.458Z,2.47
2018-10-02T01:08:24.761Z,2.37
2018-10-02T01:10:53.721Z,2.47
2018-10-02T01:13:22.555Z,2.10
2018-10-02T01:15:52.483Z,2.37
2018-10-02T01:18:21.702Z,2.57
2018-10-02T01:20:50.669Z,2.83
2018-10-02T01:23:20.980Z,2.93
2018-10-02T01:25:50.362Z,2.43
2018-10-02T01:28:19.981Z,2.63
2018-10-02T01:30:50.071Z,2.40
2018-10-02T01:33:20.628Z,2.73
2018-10-02T01:35:50.048Z,3.10
2018-10-02T01:38:19.914Z,3.40
2018-10-02T01:40:49.953Z,2.80
2018-10-02T01:43:20.568Z,2.37
2018-10-02T01:45:49.840Z,3.73
2018-10-02T01:48:20.610Z,3.77
2018-10-02T01:50:51.784Z,2.77
2018-10-02T01:53:21.501Z,3.07
2018-10-02T01:55:50.859Z,2.97
2018-10-02T01:58:19.524Z,4.37
2018-10-02T02:00:49.197Z,3.23
2018-10-02T02:03:18.305Z,3.37
2018-10-02T02:05:50.227Z,3.80
2018-10-02T02:08:19.581Z,4.70
2018-10-02T02:10:48.834Z,3.90
2018-10-02T02:13:17.833Z,3.83
2018-10-02T02:15:48.150Z,4.37
2018-10-02T02:18:19.067Z,4.60
2018-10-02T02:20:48.761Z,3.37
2018-10-02T02:23:17.988Z,3.87
2018-10-02T02:25:46.789Z,3.47
2018-10-02T02:28:16.656Z,4.03
2018-10-02T02:30:46.417Z,3.90
2018-10-02T02:33:14.988Z,4.20
2018-10-02T02:35:45.373Z,4.70
2018-10-02T02:38:14.271Z,4.97
2018-10-02T02:40:43.923Z,4.57
2018-10-02T02:43:13.625Z,5.33
2018-10-02T02:45:42.509Z,5.20
2018-10-02T02:48:17.410Z,4.70
2018-10-02T02:51:01.938Z,5.90
2018-10-02T02:53:33.830Z,5.53
2018-10-02T02:56:03.812Z,6.47
2018-10-02T02:58:33.716Z,5.67
2018-10-02T03:01:03.092Z,4.33
2018-10-02T03:03:32.735Z,4.90
2018-10-02T03:06:02.177Z,5.67
2018-10-02T03:08:31.863Z,5.47
2018-10-02T03:11:01.451Z,5.17
2018-10-02T03:13:30.272Z,5.47
2018-10-02T03:16:00.309Z,6.33
2018-10-02T03:18:29.946Z,8.13
2018-10-02T03:21:00.114Z,8.90
2018-10-02T03:23:29.617Z,8.70
2018-10-02T03:26:00.874Z,7.90
2018-10-02T03:28:29.928Z,7.90
2018-10-02T03:30:59.395Z,8.20
2018-10-02T03:33:27.974Z,7.30
2018-10-02T03:35:58.308Z,6.70
2018-10-02T03:38:27.579Z,7.10
2018-10-02T03:40:57.123Z,7.97
2018-10-02T03:43:27.267Z,7.73
2018-10-02T03:45:57.717Z,7.80
2018-10-02T03:48:26.733Z,5.80
2018-10-02T03:50:56.078Z,6.57
2018-10-02T03:53:26.479Z,6.67
2018-10-02T03:55:56.190Z,6.13
2018-10-02T03:58:24.880Z,4.93
2018-10-02T04:00:53.901Z,4.40
2018-10-02T04:03:24.746Z,5.07
2018-10-02T04:05:55.381Z,6.33
2018-10-02T04:08:25.242Z,6.43
2018-10-02T04:10:55.097Z,7.50
2018-10-02T04:13:24.191Z,8.87
2018-10-02T04:15:54.092Z,7.77
2018-10-02T04:18:23.643Z,7.30
2018-10-02T04:20:54.842Z,6.60
2018-10-02T04:23:23.492Z,6.50
2018-10-02T04:25:53.447Z,7.17
2018-10-02T04:28:22.739Z,8.30
2018-10-02T04:30:51.293Z,7.50
2018-10-02T04:33:21.811Z,8.53
2018-10-02T04:35:51.548Z,9.80
2018-10-02T04:38:20.971Z,9.90
2018-10-02T04:40:49.977Z,10.33
2018-10-02T04:43:19.569Z,10.53
2018-10-02T04:45:50.462Z,10.57
2018-10-02T04:48:19.260Z,10.53
2018-10-02T04:50:47.973Z,7.73
2018-10-02T04:53:17.165Z,7.43
2018-10-02T04:55:46.907Z,10.77
2018-10-02T04:58:15.620Z,10.20
2018-10-02T05:00:45.563Z,11.60
2018-10-02T05:03:14.483Z,9.80
2018-10-02T05:05:44.930Z,9.70
2018-10-02T05:08:14.635Z,9.50
2018-10-02T05:10:43.694Z,8.70
2018-10-02T05:13:13.954Z,8.80
2018-10-02T05:15:44.176Z,9.87
2018-10-02T05:18:13.477Z,8.53
2018-10-02T05:20:42.972Z,9.20
2018-10-02T05:23:12.187Z,9.53
2018-10-02T05:25:41.296Z,8.87
2018-10-02T05:28:10.741Z,9.00
2018-10-02T05:30:39.956Z,9.20
2018-10-02T05:33:09.057Z,9.53
2018-10-02T05:35:38.142Z,8.90
2018-10-02T05:38:06.852Z,8.47
2018-10-02T05:40:37.367Z,12.07
2018-10-02T05:43:07.436Z,15.40
2018-10-02T05:45:37.503Z,15.57
2018-10-02T05:48:07.253Z,11.50
2018-10-02T05:50:38.072Z,9.57
2018-10-02T05:53:07.154Z,9.10
2018-10-02T05:55:36.116Z,9.37
2018-10-02T05:58:05.247Z,9.23
2018-10-02T06:00:34.629Z,10.10
2018-10-02T06:03:03.477Z,9.77
2018-10-02T06:05:33.036Z,8.77
2018-10-02T06:08:02.328Z,8.43
2018-10-02T06:10:31.437Z,7.87
2018-10-02T06:12:59.866Z,8.93
2018-10-02T06:15:30.563Z,8.47
2018-10-02T06:18:00.093Z,8.53
2018-10-02T06:20:29.498Z,8.60
2018-10-02T06:22:58.533Z,9.67
2018-10-02T06:25:28.989Z,8.90
2018-10-02T06:27:58.068Z,9.83
2018-10-02T06:30:29.724Z,9.80
2018-10-02T06:32:58.861Z,10.30
2018-10-02T06:35:27.288Z,9.17
2018-10-02T06:37:57.209Z,10.60
2018-10-02T06:40:27.273Z,11.20
2018-10-02T06:42:57.247Z,9.37
2018-10-02T06:45:26.775Z,10.43
2018-10-02T06:47:57.210Z,9.13
2018-10-02T06:50:30.819Z,9.63
2018-10-02T06:53:00.810Z,8.97
2018-10-02T06:55:31.773Z,9.70
2018-10-02T06:58:02.299Z,9.63
2018-10-02T07:00:32.326Z,10.93
2018-10-02T07:03:02.409Z,10.43
2018-10-02T07:05:32.016Z,10.73
2018-10-02T07:08:00.792Z,10.60
2018-10-02T07:10:30.315Z,10.70
2018-10-02T07:12:59.324Z,10.07
2018-10-02T07:15:28.574Z,10.30
2018-10-02T07:17:58.846Z,9.80
2018-10-02T07:20:28.005Z,10.50
2018-10-02T07:22:57.721Z,11.33
2018-10-02T07:25:28.201Z,10.57
2018-10-02T07:27:58.708Z,10.27
2018-10-02T07:30:27.722Z,9.77
2018-10-02T07:32:56.307Z,9.57
2018-10-02T07:35:26.491Z,10.43
2018-10-02T07:37:56.149Z,9.97
2018-10-02T07:40:27.890Z,9.00
2018-10-02T07:42:58.434Z,9.67
2018-10-02T07:45:28.042Z,8.80
2018-10-02T07:47:56.872Z,9.57
2018-10-02T07:50:26.462Z,9.47
2018-10-02T07:52:56.249Z,9.70
2018-10-02T07:55:25.694Z,9.20
2018-10-02T07:57:55.144Z,8.90
2018-10-02T08:00:24.592Z,9.10
2018-10-02T08:02:53.512Z,8.20
2018-10-02T08:05:24.489Z,9.00
2018-10-02T08:07:53.778Z,8.67
2018-10-02T08:10:24.025Z,8.77
2018-10-02T08:12:52.929Z,8.97
2018-10-02T08:15:23.179Z,7.87
2018-10-02T08:17:53.189Z,8.67
2018-10-02T08:20:27.023Z,8.27
2018-10-02T08:22:56.786Z,8.70
2018-10-02T08:25:25.544Z,8.50
2018-10-02T08:27:54.636Z,8.30
2018-10-02T08:30:23.951Z,8.17
2018-10-02T08:32:52.510Z,8.00
2018-10-02T08:35:21.877Z,7.90
2018-10-02T08:37:50.840Z,7.57
2018-10-02T08:40:20.025Z,8.23
2018-10-02T08:42:49.592Z,8.97
2018-10-02T08:45:18.895Z,9.17
2018-10-02T08:47:47.692Z,8.37
2018-10-02T08:50:17.279Z,9.03
2018-10-02T08:52:46.560Z,8.37
2018-10-02T08:55:15.374Z,9.17
2018-10-02T08:57:45.522Z,8.90
2018-10-02T09:00:14.965Z,7.90
2018-10-02T09:02:44.165Z,7.50
2018-10-02T09:05:14.077Z,7.73
2018-10-02T09:07:43.438Z,8.90
2018-10-02T09:10:12.529Z,7.43
2018-10-02T09:12:41.968Z,7.60
2018-10-02T09:15:12.324Z,7.13
2018-10-02T09:17:40.974Z,7.00
2018-10-02T09:20:11.541Z,6.80
2018-10-02T09:22:41.535Z,6.93
2018-10-02T09:25:12.066Z,6.77
2018-10-02T09:27:42.254Z,7.23
2018-10-02T09:30:17.740Z,7.10
2018-10-02T09:32:51.793Z,5.97
2018-10-02T09:35:26.722Z,7.20
2018-10-02T09:38:02.592Z,6.77
2018-10-02T09:40:38.728Z,6.87
2018-10-02T09:43:13.673Z,6.93
2018-10-02T09:45:42.847Z,6.37
2018-10-02T09:48:13.942Z,7.30
2018-10-02T09:50:44.036Z,7.27
2018-10-02T09:53:13.642Z,7.47
2018-10-02T09:55:43.761Z,7.30
2018-10-02T09:58:13.200Z,7.17
2018-10-02T10:00:48.499Z,8.30
2018-10-02T10:03:17.065Z,7.57
2018-10-02T10:05:48.307Z,7.83
2018-10-02T10:08:18.720Z,8.07
2018-10-02T10:10:48.264Z,7.67
2018-10-02T10:13:17.905Z,7.67
2018-10-02T10:15:49.448Z,9.20
2018-10-02T10:18:19.085Z,8.07
2018-10-02T10:20:49.345Z,8.90
2018-10-02T10:23:20.873Z,8.73
2018-10-02T10:25:51.217Z,8.20
2018-10-02T10:28:20.918Z,8.43
2018-10-02T10:30:49.801Z,8.50
2018-10-02T10:33:22.380Z,8.33
2018-10-02T10:35:52.617Z,8.83
2018-10-02T10:38:23.580Z,7.93
2018-10-02T10:40:53.746Z,8.03
2018-10-02T10:43:22.574Z,8.30
2018-10-02T10:45:52.097Z,9.10
2018-10-02T10:48:20.537Z,8.17
2018-10-02T10:50:49.912Z,8.13
2018-10-02T10:53:20.233Z,8.47
2018-10-02T10:55:49.016Z,7.83
2018-10-02T10:58:18.398Z,8.20
2018-10-02T11:00:48.619Z,7.30
2018-10-02T11:03:17.713Z,7.60
2018-10-02T11:05:46.528Z,7.77
2018-10-02T11:08:15.245Z,7.17
2018-10-02T11:10:44.308Z,7.93
2018-10-02T11:13:13.305Z,8.03
2018-10-02T11:15:42.680Z,7.73
2018-10-02T11:18:12.829Z,7.33
2018-10-02T11:20:41.860Z,7.00
2018-10-02T11:23:11.973Z,8.10
2018-10-02T11:25:41.471Z,8.10
2018-10-02T11:28:11.242Z,8.33
2018-10-02T11:30:41.510Z,7.37
2018-10-02T11:33:11.792Z,8.53
2018-10-02T11:35:40.630Z,7.97
2018-10-02T11:38:09.412Z,7.63
2018-10-02T11:40:38.849Z,7.33
2018-10-02T11:43:08.319Z,7.43
2018-10-02T11:45:38.402Z,6.60
2018-10-02T11:48:08.857Z,6.47
2018-10-02T11:50:38.256Z,6.20
2018-10-02T11:53:07.429Z,5.23
2018-10-02T11:55:37.082Z,5.53
2018-10-02T11:58:06.789Z,11.23
2018-10-02T12:00:35.577Z,6.70
2018-10-02T12:03:05.248Z,6.20
2018-10-02T12:05:34.443Z,6.30
2018-10-02T12:08:03.912Z,5.53
2018-10-02T12:10:33.761Z,6.20
2018-10-02T12:13:03.534Z,5.97
2018-10-02T12:15:32.971Z,5.23
2018-10-02T12:18:03.025Z,5.30
2018-10-02T12:20:32.945Z,5.13
2018-10-02T12:23:01.628Z,4.80
2018-10-02T12:25:31.397Z,4.80
2018-10-02T12:28:00.556Z,4.63
2018-10-02T12:30:30.161Z,4.20
2018-10-02T12:32:59.335Z,4.40
2018-10-02T12:35:28.136Z,4.03
2018-10-02T12:37:58.133Z,3.87
2018-10-02T12:40:27.020Z,3.60
2018-10-02T12:42:56.012Z,3.70
2018-10-02T12:45:25.990Z,3.20
2018-10-02T12:47:56.034Z,3.13
2018-10-02T12:50:25.307Z,4.20
2018-10-02T12:52:55.028Z,3.57
2018-10-02T12:55:24.759Z,3.63
2018-10-02T12:57:54.287Z,6.10
2018-10-02T13:00:23.556Z,4.20
2018-10-02T13:02:54.417Z,5.50
2018-10-02T13:05:24.044Z,3.80
2018-10-02T13:07:53.329Z,4.07
2018-10-02T13:10:27.006Z,3.30
2018-10-02T13:12:56.403Z,2.70
2018-10-02T13:15:26.765Z,2.77
2018-10-02T13:17:55.451Z,2.40
2018-10-02T13:20:23.936Z,2.10
2018-10-02T13:22:53.115Z,2.30
2018-10-02T13:25:24.099Z,3.27
2018-10-02T13:27:53.570Z,3.77
2018-10-02T13:30:23.203Z,8.63
2018-10-02T13:32:52.209Z,3.27
2018-10-02T13:35:23.008Z,3.50
2018-10-02T13:37:53.694Z,3.83
2018-10-02T13:40:24.064Z,5.47
2018-10-02T13:42:55.925Z,5.17
2018-10-02T13:45:25.644Z,4.87
2018-10-02T13:47:54.931Z,4.13
2018-10-02T13:50:26.023Z,4.23
2018-10-02T13:52:55.426Z,4.30
2018-10-02T13:55:24.816Z,4.70
2018-10-02T13:57:55.152Z,4.30
2018-10-02T14:00:24.489Z,4.00
2018-10-02T14:02:54.078Z,3.90
2018-10-02T14:05:23.183Z,4.33
2018-10-02T14:07:53.851Z,4.50
2018-10-02T14:10:24.133Z,4.93
2018-10-02T14:12:53.590Z,4.50
2018-10-02T14:15:24.425Z,4.20
2018-10-02T14:17:54.468Z,6.87
2018-10-02T14:20:24.584Z,5.00
2018-10-02T14:22:54.618Z,4.50
2018-10-02T14:25:24.439Z,4.53
2018-10-02T14:27:55.117Z,3.60
2018-10-02T14:30:26.021Z,3.90
2018-10-02T14:32:56.016Z,3.77
2018-10-02T14:35:25.821Z,4.00
2018-10-02T14:37:55.601Z,3.90
2018-10-02T14:40:25.202Z,4.37
2018-10-02T14:42:55.308Z,3.70
2018-10-02T14:45:25.823Z,3.53
2018-10-02T14:47:57.321Z,3.47
2018-10-02T14:50:27.520Z,5.87
2018-10-02T14:52:58.991Z,3.13
2018-10-02T14:55:29.065Z,3.40
2018-10-02T14:57:58.489Z,3.60
2018-10-02T15:00:28.452Z,3.53
2018-10-02T15:02:58.877Z,3.50
2018-10-02T15:05:27.789Z,3.60
2018-10-02T15:07:57.733Z,2.77
2018-10-02T15:10:27.698Z,3.33
2018-10-02T15:12:57.278Z,2.50
2018-10-02T15:15:25.944Z,3.50
2018-10-02T15:17:56.591Z,3.00
2018-10-02T15:20:25.026Z,2.90
2018-10-02T15:22:55.264Z,2.63
2018-10-02T15:25:25.870Z,2.60
2018-10-02T15:27:57.850Z,2.87
2018-10-02T15:30:28.255Z,2.90
2018-10-02T15:32:58.494Z,3.30
2018-10-02T15:35:28.768Z,6.47
2018-10-02T15:37:59.336Z,5.30
2018-10-02T15:40:28.707Z,3.03
2018-10-02T15:42:59.528Z,9.00
2018-10-02T15:45:30.560Z,2.90
2018-10-02T15:48:00.389Z,4.03
2018-10-02T15:50:29.832Z,3.67
2018-10-02T15:53:00.828Z,4.67
2018-10-02T15:55:31.098Z,4.20
2018-10-02T15:58:00.855Z,3.10
2018-10-02T16:00:31.305Z,2.47
2018-10-02T16:03:02.054Z,2.90
2018-10-02T16:05:32.394Z,3.33
2018-10-02T16:08:01.250Z,3.03
2018-10-02T16:10:30.972Z,3.70
2018-10-02T16:13:02.612Z,4.47
2018-10-02T16:15:32.943Z,3.60
2018-10-02T16:18:03.401Z,6.93
2018-10-02T16:20:32.045Z,5.43
2018-10-02T16:23:00.465Z,2.60
2018-10-02T16:25:31.573Z,5.77
2018-10-02T16:28:02.212Z,3.60
2018-10-02T16:30:32.446Z,9.00
2018-10-02T16:33:02.775Z,6.83
2018-10-02T16:35:32.281Z,10.73
2018-10-02T16:38:01.596Z,6.40
2018-10-02T16:40:30.530Z,4.87
2018-10-02T16:43:01.344Z,5.90
2018-10-02T16:45:31.739Z,4.47
2018-10-02T16:48:01.478Z,3.03
2018-10-02T16:50:32.265Z,2.67
2018-10-02T16:53:02.217Z,4.13
2018-10-02T16:55:32.698Z,3.47
2018-10-02T16:58:03.103Z,2.90
2018-10-02T17:00:33.917Z,3.03
2018-10-02T17:03:04.385Z,3.20
2018-10-02T17:05:35.722Z,4.03
2018-10-02T17:08:06.432Z,3.50
2018-10-02T17:10:35.247Z,4.00
2018-10-02T17:13:05.160Z,3.17
2018-10-02T17:15:34.949Z,3.40
2018-10-02T17:18:05.104Z,4.10
2018-10-02T17:20:34.403Z,4.03
2018-10-02T17:23:03.786Z,3.97
2018-10-02T17:25:33.445Z,4.50
2018-10-02T17:28:05.355Z,3.87
2018-10-02T17:30:34.249Z,5.30
2018-10-02T17:33:05.070Z,4.30
2018-10-02T17:35:33.809Z,3.30
2018-10-02T17:38:04.267Z,3.30
2018-10-02T17:40:35.442Z,4.50
2018-10-02T17:43:06.149Z,3.37
2018-10-02T17:45:36.113Z,4.80
2018-10-02T17:48:05.101Z,5.20
2018-10-02T17:50:36.072Z,3.70
2018-10-02T17:53:07.640Z,3.70
2018-10-02T17:55:37.488Z,3.60
2018-10-02T17:58:07.964Z,3.47
2018-10-02T18:00:39.194Z,3.43
2018-10-02T18:03:09.599Z,4.70
2018-10-02T18:05:41.575Z,4.77
2018-10-02T18:08:12.724Z,4.93
2018-10-02T18:10:43.238Z,3.47
2018-10-02T18:13:13.174Z,5.40
2018-10-02T18:15:44.296Z,8.57
2018-10-02T18:18:14.206Z,3.70
2018-10-02T18:20:43.524Z,10.37
2018-10-02T18:23:14.789Z,4.50
2018-10-02T18:25:46.666Z,4.27
2018-10-02T18:28:16.795Z,6.50
2018-10-02T18:30:47.815Z,5.20
2018-10-02T18:33:19.356Z,4.50
2018-10-02T18:35:47.936Z,4.80
2018-10-02T18:38:16.369Z,4.60
2018-10-02T18:40:44.841Z,4.80
2018-10-02T18:43:14.811Z,4.70
2018-10-02T18:45:44.752Z,4.80
2018-10-02T18:48:15.705Z,4.83
2018-10-02T18:50:45.941Z,4.47
2018-10-02T18:53:15.268Z,5.63
2018-10-02T18:55:45.299Z,4.80
2018-10-02T18:58:15.405Z,5.00
2018-10-02T19:00:45.392Z,4.70
2018-10-02T19:03:16.187Z,5.80
2018-10-02T19:05:46.631Z,5.07
2018-10-02T19:08:20.964Z,10.30
2018-10-02T19:10:50.841Z,33.47
2018-10-02T19:13:20.821Z,38.03
2018-10-02T19:15:55.743Z,12.37
2018-10-02T19:18:25.665Z,19.57
2018-10-02T19:20:57.796Z,6.70
2018-10-02T19:23:29.223Z,8.33
2018-10-02T19:26:04.364Z,44.10
2018-10-02T19:28:34.449Z,6.00
2018-10-02T19:31:09.899Z,21.53
2018-10-02T19:33:39.462Z,33.17
2018-10-02T19:36:10.780Z,16.77
2018-10-02T19:38:46.392Z,6.33
2018-10-02T19:41:15.646Z,7.23
2018-10-02T19:43:44.393Z,6.73
2018-10-02T19:46:53.621Z,10.93
2018-10-02T19:49:23.561Z,11.23
2018-10-02T19:52:11.698Z,7.27
2018-10-02T19:54:42.034Z,8.87
2018-10-02T19:57:12.542Z,8.23
2018-10-02T19:59:41.558Z,8.20
2018-10-02T20:02:10.949Z,8.70
2018-10-02T20:04:39.489Z,8.63
2018-10-02T20:07:08.336Z,8.63
2018-10-02T20:09:37.568Z,9.37
2018-10-02T20:12:06.913Z,8.87
2018-10-02T20:14:37.129Z,9.53
2018-10-02T20:17:06.857Z,8.93
2018-10-02T20:19:36.451Z,8.83
2018-10-02T20:22:07.708Z,8.77
2018-10-02T20:24:38.040Z,8.40
2018-10-02T20:27:07.373Z,8.50
2018-10-02T20:29:37.443Z,9.10
2018-10-02T20:32:07.035Z,9.53
2018-10-02T20:34:37.668Z,9.47
2018-10-02T20:37:08.957Z,11.53
2018-10-02T20:39:39.149Z,20.07
2018-10-02T20:42:08.849Z,15.03
2018-10-02T20:44:39.520Z,9.17
2018-10-02T20:47:11.916Z,9.27
2018-10-02T20:49:42.206Z,10.00
2018-10-02T20:52:10.646Z,9.40
2018-10-02T20:54:40.433Z,10.50
2018-10-02T20:57:10.849Z,10.37
2018-10-02T20:59:39.819Z,11.03
2018-10-02T21:02:10.520Z,11.07
2018-10-02T21:04:44.845Z,11.07
2018-10-02T21:07:14.647Z,9.93
2018-10-02T21:09:44.298Z,11.03
2018-10-02T21:12:14.372Z,10.23
2018-10-02T21:14:44.037Z,13.70
2018-10-02T21:17:13.032Z,16.70
2018-10-02T21:19:42.212Z,22.53
2018-10-02T21:22:11.972Z,16.93
2018-10-02T21:24:40.867Z,25.67
2018-10-02T21:27:11.345Z,20.83
2018-10-02T21:29:40.732Z,26.77
2018-10-02T21:32:10.437Z,12.87
2018-10-02T21:34:39.469Z,14.40
2018-10-02T21:37:08.633Z,36.10
2018-10-02T21:39:37.484Z,11.37
2018-10-02T21:42:07.529Z,11.80
2018-10-02T21:44:37.842Z,12.87
2018-10-02T21:47:06.789Z,10.33
2018-10-02T21:49:35.943Z,22.57
2018-10-02T21:52:05.712Z,17.57
2018-10-02T21:54:36.324Z,14.93
2018-10-02T21:57:06.767Z,11.70
2018-10-02T21:59:35.610Z,14.07
2018-10-02T22:02:05.930Z,14.13
2018-10-02T22:04:36.019Z,13.83
2018-10-02T22:07:05.873Z,12.83
2018-10-02T22:09:35.387Z,13.23
2018-10-02T22:12:04.997Z,14.60
2018-10-02T22:14:36.528Z,12.33
2018-10-02T22:17:06.296Z,13.07
2018-10-02T22:19:37.185Z,12.80
2018-10-02T22:22:06.932Z,13.77
2018-10-02T22:24:38.043Z,13.77
2018-10-02T22:27:08.425Z,13.53
2018-10-02T22:29:37.880Z,13.87
2018-10-02T22:32:06.746Z,12.53
2018-10-02T22:34:37.395Z,14.10
2018-10-02T22:37:06.870Z,13.03
2018-10-02T22:39:37.238Z,13.80
2018-10-02T22:42:07.489Z,13.33
2018-10-02T22:44:37.458Z,13.43
2018-10-02T22:47:09.370Z,13.00
2018-10-02T22:49:41.725Z,12.50
2018-10-02T22:52:10.953Z,11.80
2018-10-02T22:54:41.759Z,13.63
2018-10-02T22:57:11.849Z,13.80
2018-10-02T22:59:41.633Z,14.20
2018-10-02T23:02:11.232Z,14.33
2018-10-02T23:04:40.782Z,15.03
2018-10-02T23:07:10.430Z,13.13
2018-10-02T23:09:41.977Z,11.57
2018-10-02T23:12:12.274Z,10.27
2018-10-02T23:14:41.773Z,10.23
2018-10-02T23:17:11.455Z,10.87
2018-10-02T23:19:42.573Z,10.67
2018-10-02T23:22:12.204Z,11.30
2018-10-02T23:24:41.440Z,11.20
2018-10-02T23:27:10.129Z,11.73
2018-10-02T23:29:41.077Z,11.67
2018-10-02T23:32:10.884Z,13.17
2018-10-02T23:34:39.371Z,14.60
2018-10-02T23:37:09.201Z,16.20
2018-10-02T23:39:38.863Z,17.57
2018-10-02T23:42:08.668Z,16.57
2018-10-02T23:44:39.481Z,16.83
2018-10-02T23:47:09.889Z,15.93
2018-10-02T23:49:39.601Z,15.33
2018-10-02T23:52:09.595Z,15.20
2018-10-02T23:54:39.720Z,17.33
2018-10-02T23:57:10.640Z,17.87
2018-10-02T23:59:41.324Z,15.10
